createdAt,value
2023-07-11T00:00:51.534Z,62.61
2023-07-11T00:03:18.092Z,62.58
2023-07-11T00:05:44.718Z,63.17
2023-07-11T00:08:11.256Z,62.96
2023-07-11T00:10:37.754Z,63.26
2023-07-11T00:13:04.213Z,63.15
2023-07-11T00:15:30.759Z,63.03
2023-07-11T00:17:57.304Z,63.51
2023-07-11T00:20:24.008Z,63.80
2023-07-11T00:22:50.743Z,63.39
2023-07-11T00:25:17.279Z,63.71
2023-07-11T00:27:43.826Z,63.65
2023-07-11T00:30:10.902Z,63.62
2023-07-11T00:32:37.495Z,64.11
2023-07-11T00:35:04.367Z,64.75
2023-07-11T00:37:31.070Z,64.28
2023-07-11T00:39:57.533Z,64.43
2023-07-11T00:42:25.639Z,64.23
2023-07-11T00:44:59.087Z,64.41
2023-07-11T00:47:27.740Z,64.55
2023-07-11T00:49:59.021Z,64.76
2023-07-11T00:52:27.897Z,65.34
2023-07-11T00:54:58.200Z,65.02
2023-07-11T00:57:27.757Z,65.65
2023-07-11T00:59:54.395Z,65.37
2023-07-11T01:02:26.799Z,65.58
2023-07-11T01:04:53.499Z,65.39
2023-07-11T01:07:26.164Z,66.06
2023-07-11T01:09:53.019Z,65.74
2023-07-11T01:12:20.266Z,66.04
2023-07-11T01:14:49.227Z,66.67
2023-07-11T01:17:28.870Z,67.27
2023-07-11T01:19:56.578Z,66.30
2023-07-11T01:22:24.570Z,67.16
2023-07-11T01:24:52.182Z,67.28
2023-07-11T01:27:21.664Z,67.03
2023-07-11T01:29:50.191Z,67.81
2023-07-11T01:32:17.920Z,67.59
2023-07-11T01:34:44.599Z,68.18
2023-07-11T01:37:11.387Z,68.48
2023-07-11T01:39:38.181Z,68.68
2023-07-11T01:42:05.306Z,68.32
2023-07-11T01:44:32.338Z,68.79
2023-07-11T01:47:03.368Z,69.18
2023-07-11T01:49:30.370Z,69.02
2023-07-11T01:52:23.996Z,69.18
2023-07-11T01:54:51.662Z,69.61
2023-07-11T01:57:18.610Z,68.92
2023-07-11T01:59:47.419Z,69.01
2023-07-11T02:02:13.983Z,69.39
2023-07-11T02:04:40.516Z,68.94
2023-07-11T02:07:07.460Z,68.91
2023-07-11T02:09:34.356Z,68.75
2023-07-11T02:12:00.803Z,68.64
2023-07-11T02:14:27.280Z,69.07
2023-07-11T02:16:54.535Z,68.56
2023-07-11T02:19:23.077Z,69.00
2023-07-11T02:21:50.000Z,69.02
2023-07-11T02:24:18.288Z,69.41
2023-07-11T02:26:45.396Z,69.65
2023-07-11T02:29:12.040Z,68.93
2023-07-11T02:31:40.096Z,69.25
2023-07-11T02:34:06.730Z,69.74
2023-07-11T02:36:33.575Z,69.74
2023-07-11T02:39:00.050Z,69.52
2023-07-11T02:41:27.073Z,69.36
2023-07-11T02:43:53.885Z,69.67
2023-07-11T02:46:20.908Z,69.90
2023-07-11T02:48:49.301Z,69.93
2023-07-11T02:51:15.846Z,70.31
2023-07-11T02:53:42.362Z,70.30
2023-07-11T02:56:09.039Z,69.17
2023-07-11T02:58:35.774Z,69.15
2023-07-11T03:01:03.441Z,69.83
2023-07-11T03:03:30.045Z,70.32
2023-07-11T03:05:57.224Z,69.82
2023-07-11T03:08:23.920Z,69.88
2023-07-11T03:10:50.722Z,69.80
2023-07-11T03:13:19.057Z,69.48
2023-07-11T03:15:45.673Z,69.01
2023-07-11T03:18:14.772Z,69.67
2023-07-11T03:20:43.099Z,69.91
2023-07-11T03:23:12.122Z,69.63
2023-07-11T03:25:38.848Z,69.87
2023-07-11T03:28:05.592Z,70.12
2023-07-11T03:30:32.886Z,69.54
2023-07-11T03:32:59.386Z,69.39
2023-07-11T03:35:29.020Z,69.43
2023-07-11T03:37:55.616Z,68.73
2023-07-11T03:40:22.155Z,68.67
2023-07-11T03:42:49.037Z,68.69
2023-07-11T03:45:15.762Z,68.04
2023-07-11T03:47:43.497Z,68.66
2023-07-11T03:50:10.836Z,68.85
2023-07-11T03:52:37.382Z,68.89
2023-07-11T03:55:04.122Z,68.36
2023-07-11T03:57:30.662Z,68.80
2023-07-11T03:59:58.269Z,68.79
2023-07-11T04:02:25.295Z,68.54
2023-07-11T04:04:51.816Z,68.66
2023-07-11T04:07:18.322Z,69.30
2023-07-11T04:09:44.889Z,69.06
2023-07-11T04:12:11.738Z,68.58
2023-07-11T04:14:39.690Z,69.10
2023-07-11T04:17:07.449Z,68.88
2023-07-11T04:19:34.049Z,68.98
2023-07-11T04:22:00.505Z,67.84
2023-07-11T04:24:27.545Z,67.39
2023-07-11T04:26:53.997Z,67.80
2023-07-11T04:29:20.534Z,67.62
2023-07-11T04:31:47.056Z,67.77
2023-07-11T04:34:13.553Z,68.11
2023-07-11T04:36:40.030Z,68.73
2023-07-11T04:39:06.625Z,67.67
2023-07-11T04:41:33.153Z,67.94
2023-07-11T04:44:00.660Z,68.57
2023-07-11T04:46:28.256Z,69.48
2023-07-11T04:48:54.758Z,69.46
2023-07-11T04:51:21.225Z,69.41
2023-07-11T04:53:47.778Z,69.91
2023-07-11T04:56:14.573Z,70.31
2023-07-11T04:58:41.341Z,70.78
2023-07-11T05:01:13.541Z,70.88
2023-07-11T05:03:40.601Z,71.19
2023-07-11T05:06:08.790Z,71.05
2023-07-11T05:08:35.768Z,71.04
2023-07-11T05:11:08.249Z,71.07
2023-07-11T05:13:36.584Z,71.23
2023-07-11T05:16:06.673Z,71.39
2023-07-11T05:18:36.186Z,71.29
2023-07-11T05:21:02.640Z,70.59
2023-07-11T05:23:31.368Z,70.60
2023-07-11T05:25:57.996Z,70.23
2023-07-11T05:28:28.288Z,70.30
2023-07-11T05:30:55.413Z,70.28
2023-07-11T05:33:21.857Z,70.46
2023-07-11T05:35:59.092Z,70.55
2023-07-11T05:38:25.728Z,69.98
2023-07-11T05:40:52.540Z,70.32
2023-07-11T05:43:19.006Z,70.23
2023-07-11T05:45:46.139Z,70.38
2023-07-11T05:48:13.503Z,70.02
2023-07-11T05:50:39.987Z,70.07
2023-07-11T05:53:06.893Z,70.44
2023-07-11T05:55:33.357Z,70.27
2023-07-11T05:57:59.875Z,70.38
2023-07-11T06:00:26.577Z,70.15
2023-07-11T06:02:53.146Z,70.34
2023-07-11T06:05:20.186Z,70.45
2023-07-11T06:07:48.387Z,69.66
2023-07-11T06:10:14.985Z,69.06
2023-07-11T06:12:41.494Z,69.85
2023-07-11T06:15:08.354Z,69.23
2023-07-11T06:17:34.920Z,68.98
2023-07-11T06:20:01.673Z,69.23
2023-07-11T06:22:28.202Z,69.23
2023-07-11T06:24:54.831Z,67.86
2023-07-11T06:27:21.332Z,68.04
2023-07-11T06:29:48.048Z,67.43
2023-07-11T06:32:14.619Z,66.63
2023-07-11T06:34:41.144Z,66.86
2023-07-11T06:37:07.649Z,66.87
2023-07-11T06:39:34.112Z,65.92
2023-07-11T06:42:00.571Z,64.99
2023-07-11T06:44:27.056Z,65.08
2023-07-11T06:46:54.072Z,64.65
2023-07-11T06:49:20.570Z,64.85
2023-07-11T06:51:47.104Z,64.19
2023-07-11T06:54:13.579Z,63.85
2023-07-11T06:56:40.128Z,63.24
2023-07-11T06:59:06.610Z,63.38
2023-07-11T07:04:03.980Z,62.41
2023-07-11T07:06:32.226Z,61.51
2023-07-11T07:08:58.698Z,61.85
2023-07-11T07:11:25.214Z,61.54
2023-07-11T07:14:04.749Z,61.76
2023-07-11T07:16:37.116Z,61.30
2023-07-11T07:19:04.954Z,60.44
2023-07-11T07:21:31.782Z,59.68
2023-07-11T07:23:58.510Z,60.34
2023-07-11T07:26:25.146Z,59.77
2023-07-11T07:28:51.932Z,59.49
2023-07-11T07:31:18.512Z,58.92
2023-07-11T07:33:45.070Z,59.36
2023-07-11T07:36:13.072Z,59.09
2023-07-11T07:38:40.580Z,59.30
2023-07-11T07:41:10.064Z,57.96
2023-07-11T07:43:37.599Z,58.47
2023-07-11T07:46:05.451Z,56.32
2023-07-11T07:48:32.104Z,54.06
2023-07-11T07:51:19.011Z,54.15
2023-07-11T07:53:45.623Z,50.95
2023-07-11T07:56:20.510Z,51.92
2023-07-11T07:58:48.111Z,51.46
2023-07-11T08:01:16.243Z,50.81
2023-07-11T08:03:43.177Z,50.34
2023-07-11T08:08:40.593Z,49.26
2023-07-11T08:11:08.500Z,49.78
2023-07-11T08:13:57.045Z,48.45
2023-07-11T08:18:55.352Z,46.77
2023-07-11T08:21:21.917Z,46.28
2023-07-11T08:23:48.374Z,46.11
2023-07-11T08:26:15.045Z,46.33
2023-07-11T08:28:43.001Z,45.70
2023-07-11T08:31:11.393Z,45.31
2023-07-11T08:33:40.497Z,44.69
2023-07-11T08:36:07.010Z,44.45
2023-07-11T08:38:33.491Z,43.98
2023-07-11T08:41:28.692Z,43.50
2023-07-11T08:44:03.938Z,42.45
2023-07-11T08:46:34.449Z,44.04
2023-07-11T08:49:01.878Z,42.74
2023-07-11T08:51:34.387Z,42.33
2023-07-11T08:54:08.022Z,42.63
2023-07-11T08:56:42.065Z,41.39
2023-07-11T08:59:17.238Z,41.96
2023-07-11T09:02:03.749Z,40.24
2023-07-11T09:04:31.409Z,40.24
2023-07-11T09:07:07.528Z,41.16
2023-07-11T09:09:35.217Z,39.68
2023-07-11T09:12:21.197Z,38.27
2023-07-11T09:15:02.896Z,38.76
2023-07-11T09:18:07.830Z,40.09
2023-07-11T09:20:44.116Z,40.29
2023-07-11T09:23:40.130Z,40.03
2023-07-11T09:26:11.314Z,38.04
2023-07-11T09:28:39.362Z,39.75
2023-07-11T09:31:15.074Z,39.17
2023-07-11T09:33:45.418Z,38.89
2023-07-11T09:36:35.294Z,40.15
2023-07-11T09:39:25.380Z,39.37
2023-07-11T09:42:10.443Z,39.35
2023-07-11T09:44:38.180Z,37.32
2023-07-11T09:47:18.241Z,37.87
2023-07-11T09:49:46.181Z,36.54
2023-07-11T09:52:27.221Z,36.92
2023-07-11T09:55:07.194Z,36.50
2023-07-11T09:57:35.189Z,36.62
2023-07-11T10:00:20.876Z,37.35
2023-07-11T10:02:49.197Z,38.03
2023-07-11T10:05:22.330Z,37.88
2023-07-11T10:08:14.848Z,37.10
2023-07-11T10:10:52.608Z,37.42
2023-07-11T10:13:26.531Z,37.23
2023-07-11T10:16:00.164Z,35.79
2023-07-11T10:18:32.282Z,33.82
2023-07-11T10:21:07.453Z,34.09
2023-07-11T10:23:36.462Z,33.41
2023-07-11T10:26:21.373Z,34.18
2023-07-11T10:29:19.709Z,34.09
2023-07-11T10:32:01.305Z,34.16
2023-07-11T10:34:48.782Z,34.37
2023-07-11T10:37:40.657Z,34.46
2023-07-11T10:40:25.527Z,34.48
2023-07-11T10:43:18.527Z,33.33
2023-07-11T10:45:46.922Z,34.07
2023-07-11T10:48:23.232Z,33.94
2023-07-11T10:51:05.199Z,33.56
2023-07-11T10:53:45.155Z,33.36
2023-07-11T10:56:24.768Z,33.15
2023-07-11T10:58:51.813Z,33.43
2023-07-11T11:01:30.438Z,33.40
2023-07-11T11:04:44.803Z,34.46
2023-07-11T11:07:32.229Z,33.91
2023-07-11T11:10:11.139Z,33.60
2023-07-11T11:13:12.968Z,34.47
2023-07-11T11:15:43.833Z,35.25
2023-07-11T11:18:20.789Z,34.54
2023-07-11T11:21:19.659Z,34.11
2023-07-11T11:24:05.985Z,34.65
2023-07-11T11:26:42.165Z,34.95
2023-07-11T11:29:30.536Z,35.44
2023-07-11T11:32:17.165Z,35.16
2023-07-11T11:35:04.048Z,35.00
2023-07-11T11:37:53.727Z,34.78
2023-07-11T11:40:23.074Z,36.53
2023-07-11T11:43:02.468Z,35.78
2023-07-11T11:45:58.622Z,36.14
2023-07-11T11:50:57.730Z,36.94
2023-07-11T11:53:47.667Z,35.66
2023-07-11T11:56:23.117Z,35.97
2023-07-11T11:58:59.891Z,36.88
2023-07-11T12:01:35.921Z,37.41
2023-07-11T12:04:08.679Z,36.42
2023-07-11T12:06:36.127Z,36.60
2023-07-11T12:09:18.239Z,36.53
2023-07-11T12:12:06.208Z,36.97
2023-07-11T12:14:44.339Z,35.88
2023-07-11T12:17:33.066Z,36.40
2023-07-11T12:20:03.049Z,37.29
2023-07-11T12:22:38.519Z,36.91
2023-07-11T12:25:07.927Z,37.76
2023-07-11T12:27:34.591Z,38.31
2023-07-11T12:30:14.319Z,37.48
2023-07-11T12:32:47.144Z,38.75
2023-07-11T12:35:17.620Z,38.45
2023-07-11T12:38:00.443Z,39.07
2023-07-11T12:41:04.473Z,37.48
2023-07-11T12:43:34.357Z,37.76
2023-07-11T12:46:24.005Z,37.40
2023-07-11T12:48:51.416Z,38.11
2023-07-11T12:51:35.721Z,37.92
2023-07-11T12:54:06.781Z,37.52
2023-07-11T12:56:33.233Z,37.51
2023-07-11T12:58:59.743Z,37.23
2023-07-11T13:01:26.592Z,37.05
2023-07-11T13:03:53.098Z,37.44
2023-07-11T13:06:27.862Z,37.75
2023-07-11T13:08:56.832Z,38.12
2023-07-11T13:11:28.537Z,38.53
2023-07-11T13:13:55.722Z,37.75
2023-07-11T13:16:25.841Z,39.65
2023-07-11T13:18:53.405Z,38.61
2023-07-11T13:21:20.745Z,38.44
2023-07-11T13:23:47.473Z,38.27
2023-07-11T13:26:21.297Z,38.94
2023-07-11T13:29:02.355Z,38.92
2023-07-11T13:31:32.244Z,39.06
2023-07-11T13:34:04.027Z,39.38
2023-07-11T13:39:04.408Z,38.43
2023-07-11T13:41:40.572Z,38.26
2023-07-11T13:44:16.953Z,38.13
2023-07-11T13:46:44.630Z,37.80
2023-07-11T13:49:20.232Z,38.44
2023-07-11T13:51:47.212Z,38.91
2023-07-11T13:54:24.852Z,38.82
2023-07-11T13:56:51.413Z,37.94
2023-07-11T13:59:18.530Z,38.33
2023-07-11T14:01:46.085Z,38.67
2023-07-11T14:04:21.276Z,37.99
2023-07-11T14:06:48.093Z,38.75
2023-07-11T14:09:15.180Z,38.36
2023-07-11T14:11:48.183Z,39.71
2023-07-11T14:14:33.109Z,40.57
2023-07-11T14:17:04.189Z,39.67
2023-07-11T14:19:34.515Z,39.43
2023-07-11T14:22:03.644Z,40.28
2023-07-11T14:24:30.194Z,40.61
2023-07-11T14:26:56.709Z,41.86
2023-07-11T14:29:26.470Z,41.45
2023-07-11T14:31:54.134Z,41.51
2023-07-11T14:34:28.043Z,41.21
2023-07-11T14:36:55.233Z,40.82
2023-07-11T14:39:22.228Z,42.27
2023-07-11T14:41:50.501Z,41.80
2023-07-11T14:44:27.117Z,42.47
2023-07-11T14:46:54.238Z,41.58
2023-07-11T14:49:21.430Z,42.24
2023-07-11T14:51:49.100Z,41.46
2023-07-11T14:54:21.555Z,41.90
2023-07-11T14:59:29.439Z,43.14
2023-07-11T15:02:03.587Z,43.14
2023-07-11T15:17:25.959Z,44.84
2023-07-11T15:19:52.641Z,44.02
2023-07-11T15:22:21.852Z,44.65
2023-07-11T15:24:56.830Z,45.74
2023-07-11T15:27:23.732Z,45.43
2023-07-11T15:29:50.181Z,45.38
2023-07-11T15:32:21.590Z,44.69
2023-07-11T15:34:48.547Z,46.21
2023-07-11T15:37:15.859Z,46.09
2023-07-11T15:39:43.911Z,45.15
2023-07-11T15:42:24.736Z,45.84
2023-07-11T15:44:53.541Z,45.58
2023-07-11T15:47:20.463Z,45.56
2023-07-11T15:49:47.687Z,45.64
2023-07-11T15:52:14.752Z,44.93
2023-07-11T15:54:41.694Z,45.79
2023-07-11T15:57:26.475Z,46.33
2023-07-11T15:59:53.030Z,45.20
2023-07-11T16:02:22.278Z,46.45
2023-07-11T16:04:48.776Z,45.88
2023-07-11T16:07:16.668Z,45.80
2023-07-11T16:09:43.175Z,45.35
2023-07-11T16:12:12.912Z,46.06
2023-07-11T16:14:40.111Z,45.85
2023-07-11T16:17:18.975Z,46.79
2023-07-11T16:19:52.032Z,45.87
2023-07-11T16:22:21.553Z,45.06
2023-07-11T16:24:48.265Z,45.41
2023-07-11T16:27:18.341Z,45.93
2023-07-11T16:29:46.362Z,45.24
2023-07-11T16:32:14.552Z,45.73
2023-07-11T16:34:41.715Z,45.92
2023-07-11T16:37:19.877Z,47.02
2023-07-11T16:39:47.865Z,47.27
2023-07-11T16:42:22.817Z,47.71
2023-07-11T16:44:49.708Z,47.42
2023-07-11T16:47:17.153Z,47.86
2023-07-11T16:49:49.182Z,47.48
2023-07-11T16:52:15.871Z,47.73
2023-07-11T16:54:42.347Z,47.74
2023-07-11T16:57:19.177Z,49.29
2023-07-11T16:59:46.328Z,48.50
2023-07-11T17:02:21.870Z,48.13
2023-07-11T17:04:52.537Z,48.92
2023-07-11T17:07:19.411Z,49.07
2023-07-11T17:09:45.916Z,48.10
2023-07-11T17:12:13.313Z,48.06
2023-07-11T17:14:40.337Z,48.68
2023-07-11T17:17:16.021Z,47.68
2023-07-11T17:19:42.535Z,47.87
2023-07-11T17:22:13.681Z,47.10
2023-07-11T17:24:40.061Z,47.77
2023-07-11T17:27:13.559Z,46.89
2023-07-11T17:29:40.096Z,47.47
2023-07-11T17:32:11.782Z,47.77
2023-07-11T17:34:38.515Z,47.32
2023-07-11T17:37:12.381Z,48.51
2023-07-11T17:39:39.227Z,49.11
2023-07-11T17:42:08.777Z,49.96
2023-07-11T17:49:52.569Z,49.83
2023-07-11T17:52:23.676Z,49.96
2023-07-11T17:54:50.149Z,49.30
2023-07-11T17:57:19.241Z,49.69
2023-07-11T17:59:45.827Z,50.06
2023-07-11T18:02:26.985Z,50.21
2023-07-11T18:04:57.757Z,50.48
2023-07-11T18:07:27.181Z,49.59
2023-07-11T18:09:53.781Z,49.75
2023-07-11T18:12:27.920Z,50.29
2023-07-11T18:14:54.689Z,50.12
2023-07-11T18:17:27.759Z,50.70
2023-07-11T18:19:54.612Z,50.25
2023-07-11T18:22:23.844Z,50.91
2023-07-11T18:24:51.328Z,50.80
2023-07-11T18:27:27.444Z,51.89
2023-07-11T18:29:56.046Z,51.76
2023-07-11T18:32:23.441Z,51.56
2023-07-11T18:34:52.743Z,52.32
2023-07-11T18:37:19.606Z,52.01
2023-07-11T18:39:48.887Z,51.94
2023-07-11T18:42:21.208Z,52.58
2023-07-11T18:44:50.597Z,52.07
2023-07-11T18:47:30.469Z,51.92
2023-07-11T18:49:57.008Z,52.01
2023-07-11T18:52:25.114Z,52.34
2023-07-11T18:54:53.126Z,52.36
2023-07-11T18:57:21.535Z,53.02
2023-07-11T18:59:48.888Z,52.97
2023-07-11T19:02:16.791Z,53.34
2023-07-11T19:04:44.672Z,53.48
2023-07-11T19:07:14.184Z,53.41
2023-07-11T19:09:45.171Z,53.47
2023-07-11T19:12:35.838Z,53.87
2023-07-11T19:15:06.362Z,54.67
2023-07-11T19:17:38.643Z,54.78
2023-07-11T19:20:17.324Z,55.16
2023-07-11T19:22:45.283Z,56.11
2023-07-11T19:25:17.278Z,56.73
2023-07-11T19:27:46.297Z,57.29
2023-07-11T19:30:17.437Z,57.29
2023-07-11T19:32:45.968Z,56.91
2023-07-11T19:35:13.654Z,57.38
2023-07-11T19:37:46.390Z,56.94
2023-07-11T19:40:18.089Z,56.81
2023-07-11T19:42:44.806Z,57.08
2023-07-11T19:45:13.591Z,56.84
2023-07-11T19:47:40.094Z,56.30
2023-07-11T19:50:18.427Z,56.71
2023-07-11T19:52:44.912Z,55.68
2023-07-11T19:55:11.400Z,54.82
2023-07-11T19:57:37.979Z,53.67
2023-07-11T20:00:21.773Z,53.80
2023-07-11T20:02:49.282Z,53.82
2023-07-11T20:05:16.459Z,53.92
2023-07-11T20:07:43.161Z,55.71
2023-07-11T20:10:37.754Z,57.53
2023-07-11T20:13:06.532Z,58.19
2023-07-11T20:15:35.002Z,56.69
2023-07-11T20:18:01.572Z,58.72
2023-07-11T20:20:31.687Z,60.60
2023-07-11T20:22:58.400Z,60.46
2023-07-11T20:25:25.391Z,59.53
2023-07-11T20:27:55.132Z,60.33
2023-07-11T20:30:29.007Z,59.96
2023-07-11T20:32:55.515Z,61.68
2023-07-11T20:35:22.033Z,60.43
2023-07-11T20:37:48.788Z,59.31
2023-07-11T20:40:24.314Z,59.33
2023-07-11T20:42:51.266Z,57.58
2023-07-11T20:45:19.956Z,57.34
2023-07-11T20:47:47.142Z,58.24
2023-07-11T20:50:40.035Z,57.56
2023-07-11T20:53:07.493Z,58.05
2023-07-11T20:55:36.914Z,57.63
2023-07-11T20:58:11.008Z,56.49
2023-07-11T21:00:39.805Z,56.72
2023-07-11T21:03:06.356Z,55.63
2023-07-11T21:05:35.950Z,57.34
2023-07-11T21:08:02.941Z,55.80
2023-07-11T21:10:41.326Z,55.55
2023-07-11T21:13:12.534Z,56.04
2023-07-11T21:15:40.037Z,56.68
2023-07-11T21:18:09.815Z,56.15
2023-07-11T21:20:41.399Z,56.95
2023-07-11T21:23:08.319Z,57.30
2023-07-11T21:25:36.572Z,57.74
2023-07-11T21:28:06.572Z,57.58
2023-07-11T21:30:41.865Z,58.98
2023-07-11T21:33:11.032Z,58.49
2023-07-11T21:35:38.548Z,58.32
2023-07-11T21:38:05.977Z,59.45
2023-07-11T21:40:36.287Z,60.31
2023-07-11T21:43:04.093Z,60.97
2023-07-11T21:45:36.478Z,61.43
2023-07-11T21:48:04.175Z,62.13
2023-07-11T21:50:45.250Z,62.29
2023-07-11T21:53:13.647Z,63.48
2023-07-11T21:55:42.429Z,63.67
2023-07-11T21:58:17.727Z,62.49
2023-07-11T22:00:45.004Z,62.49
2023-07-11T22:03:16.373Z,62.39
2023-07-11T22:05:43.381Z,62.54
2023-07-11T22:08:13.193Z,63.02
2023-07-11T22:10:39.755Z,62.93
2023-07-11T22:13:06.724Z,62.68
2023-07-11T22:15:33.288Z,62.89
2023-07-11T22:18:00.874Z,63.08
2023-07-11T22:20:38.829Z,62.70
2023-07-11T22:23:06.248Z,62.65
2023-07-11T22:25:33.176Z,63.90
2023-07-11T22:27:59.826Z,63.46
2023-07-11T22:30:29.208Z,63.84
2023-07-11T22:32:57.089Z,64.22
2023-07-11T22:35:26.682Z,64.29
2023-07-11T22:37:54.840Z,64.06
2023-07-11T22:40:34.671Z,64.27
2023-07-11T22:43:18.579Z,64.77
2023-07-11T22:45:46.739Z,64.89
2023-07-11T22:48:14.638Z,65.16
2023-07-11T22:50:49.354Z,65.23
2023-07-11T22:53:22.242Z,65.25
2023-07-11T22:55:56.953Z,65.53
2023-07-11T22:58:26.932Z,64.93
2023-07-11T23:00:55.310Z,64.97
2023-07-11T23:03:22.587Z,65.28
2023-07-11T23:05:49.571Z,65.58
2023-07-11T23:08:24.925Z,65.27
2023-07-11T23:10:51.468Z,65.55
2023-07-11T23:13:18.279Z,65.57
2023-07-11T23:15:51.901Z,66.21
2023-07-11T23:18:20.947Z,65.55
2023-07-11T23:20:53.420Z,65.63
2023-07-11T23:23:24.954Z,66.25
2023-07-11T23:25:52.485Z,66.43
2023-07-11T23:28:27.833Z,66.28
2023-07-11T23:30:56.375Z,66.38
2023-07-11T23:33:24.836Z,66.36
2023-07-11T23:35:52.849Z,65.53
2023-07-11T23:38:19.267Z,65.43
2023-07-11T23:40:47.933Z,63.26
2023-07-11T23:43:22.059Z,63.40
2023-07-11T23:45:51.287Z,62.71
2023-07-11T23:48:17.929Z,62.98
2023-07-11T23:50:46.772Z,62.66
2023-07-11T23:53:13.240Z,62.94
2023-07-11T23:55:39.738Z,63.06
2023-07-11T23:58:14.197Z,63.40
